createdAt,value
2024-02-11T00:00:15.075Z,16.95
2024-02-11T00:02:43.419Z,16.77
2024-02-11T00:05:13.150Z,16.15
2024-02-11T00:07:42.757Z,16.46
2024-02-11T00:10:11.680Z,16.66
2024-02-11T00:12:43.558Z,15.77
2024-02-11T00:15:12.418Z,15.88
2024-02-11T00:17:40.698Z,16.65
2024-02-11T00:20:11.274Z,17.37
2024-02-11T00:22:40.461Z,16.83
2024-02-11T00:25:12.043Z,16.64
2024-02-11T00:27:44.080Z,17.43
2024-02-11T00:30:12.834Z,17.42
2024-02-11T00:32:40.926Z,16.46
2024-02-11T00:35:09.452Z,16.29
2024-02-11T00:37:37.534Z,16.42
2024-02-11T00:40:07.360Z,17.50
2024-02-11T00:42:37.450Z,17.17
2024-02-11T00:45:06.326Z,17.52
2024-02-11T00:47:35.609Z,17.38
2024-02-11T00:50:03.813Z,16.67
2024-02-11T00:52:34.200Z,17.27
2024-02-11T00:55:02.194Z,17.50
2024-02-11T00:57:30.159Z,17.42
2024-02-11T00:59:59.397Z,17.49
2024-02-11T01:02:27.853Z,17.40
2024-02-11T01:04:56.204Z,17.03
2024-02-11T01:07:24.361Z,17.49
2024-02-11T01:09:52.337Z,16.95
2024-02-11T01:12:20.429Z,17.06
2024-02-11T01:14:48.387Z,16.72
2024-02-11T01:17:21.150Z,16.73
2024-02-11T01:19:49.236Z,16.43
2024-02-11T01:22:17.295Z,16.55
2024-02-11T01:24:45.154Z,17.12
2024-02-11T01:27:13.055Z,16.37
2024-02-11T01:29:41.646Z,16.39
2024-02-11T01:32:10.428Z,16.80
2024-02-11T01:34:39.718Z,15.92
2024-02-11T01:37:08.312Z,16.64
2024-02-11T01:39:36.745Z,16.19
2024-02-11T01:42:04.871Z,16.64
2024-02-11T01:44:32.747Z,16.95
2024-02-11T01:47:01.988Z,16.69
2024-02-11T01:49:29.953Z,15.57
2024-02-11T01:52:01.109Z,15.14
2024-02-11T01:54:31.248Z,15.39
2024-02-11T01:56:59.560Z,15.48
2024-02-11T01:59:31.574Z,14.79
2024-02-11T02:02:00.674Z,15.25
2024-02-11T02:04:29.000Z,15.75
2024-02-11T02:06:58.133Z,14.51
2024-02-11T02:09:27.666Z,14.93
2024-02-11T02:11:55.686Z,14.37
2024-02-11T02:14:23.807Z,15.79
2024-02-11T02:16:51.981Z,14.59
2024-02-11T02:19:21.882Z,15.83
2024-02-11T02:21:52.387Z,14.41
2024-02-11T02:24:20.334Z,14.62
2024-02-11T02:26:48.391Z,14.72
2024-02-11T02:29:16.445Z,15.68
2024-02-11T02:31:44.464Z,15.07
2024-02-11T02:34:12.562Z,15.44
2024-02-11T02:36:41.145Z,15.19
2024-02-11T02:39:12.316Z,14.23
2024-02-11T02:41:40.698Z,14.86
2024-02-11T02:44:08.726Z,15.48
2024-02-11T02:46:36.938Z,14.29
2024-02-11T02:49:04.912Z,14.48
2024-02-11T02:51:33.263Z,15.08
2024-02-11T02:54:03.493Z,16.04
2024-02-11T02:56:35.477Z,16.73
2024-02-11T02:59:06.693Z,16.56
2024-02-11T03:01:34.984Z,16.30
2024-02-11T03:04:03.607Z,16.47
2024-02-11T03:06:31.563Z,16.44
2024-02-11T03:08:59.493Z,17.05
2024-02-11T03:11:28.191Z,16.70
2024-02-11T03:13:57.645Z,16.06
2024-02-11T03:16:25.746Z,15.11
2024-02-11T03:18:53.686Z,15.99
2024-02-11T03:21:22.013Z,15.95
2024-02-11T03:23:49.901Z,16.38
2024-02-11T03:26:18.479Z,16.11
2024-02-11T03:28:46.421Z,15.97
2024-02-11T03:31:15.729Z,16.68
2024-02-11T03:33:43.767Z,16.25
2024-02-11T03:36:12.728Z,16.14
2024-02-11T03:38:40.694Z,16.75
2024-02-11T03:41:09.225Z,16.42
2024-02-11T03:43:37.381Z,16.71
2024-02-11T03:46:08.360Z,15.95
2024-02-11T03:48:37.790Z,16.02
2024-02-11T03:51:08.117Z,16.29
2024-02-11T03:53:36.182Z,16.22
2024-02-11T03:56:07.200Z,15.82
2024-02-11T03:58:36.948Z,15.11
2024-02-11T04:01:06.684Z,14.90
2024-02-11T04:03:35.066Z,15.37
2024-02-11T04:06:05.164Z,15.57
2024-02-11T04:08:35.894Z,15.52
2024-02-11T04:11:04.571Z,15.19
2024-02-11T04:13:32.605Z,15.17
2024-02-11T04:16:06.718Z,15.32
2024-02-11T04:18:34.952Z,15.99
2024-02-11T04:21:05.917Z,16.22
2024-02-11T04:23:34.093Z,15.76
2024-02-11T04:26:08.522Z,16.42
2024-02-11T04:28:37.821Z,14.21
2024-02-11T04:31:10.534Z,14.41
2024-02-11T04:33:40.317Z,16.02
2024-02-11T04:36:12.937Z,16.29
2024-02-11T04:38:40.983Z,14.96
2024-02-11T04:41:08.918Z,15.42
2024-02-11T04:43:36.881Z,15.10
2024-02-11T04:46:05.645Z,16.20
2024-02-11T04:48:33.753Z,14.47
2024-02-11T04:51:01.790Z,15.07
2024-02-11T04:53:31.597Z,15.43
2024-02-11T04:55:59.670Z,15.89
2024-02-11T04:58:32.385Z,15.32
2024-02-11T05:01:00.502Z,15.25
2024-02-11T05:03:29.166Z,14.85
2024-02-11T05:05:58.693Z,14.64
2024-02-11T05:08:26.996Z,15.72
2024-02-11T05:10:57.488Z,15.21
2024-02-11T05:13:31.432Z,14.67
2024-02-11T05:16:03.189Z,13.92
2024-02-11T05:18:33.818Z,14.74
2024-02-11T05:21:03.654Z,15.44
2024-02-11T05:23:31.742Z,15.62
2024-02-11T05:26:02.764Z,15.30
2024-02-11T05:28:31.894Z,14.35
2024-02-11T05:30:59.872Z,14.95
2024-02-11T05:33:28.075Z,14.95
2024-02-11T05:35:56.923Z,15.78
2024-02-11T05:38:26.041Z,15.09
2024-02-11T05:40:59.103Z,15.57
2024-02-11T05:43:29.038Z,15.80
2024-02-11T05:45:57.168Z,15.02
2024-02-11T05:48:25.357Z,15.35
2024-02-11T05:50:53.509Z,14.29
2024-02-11T05:53:21.883Z,14.51
2024-02-11T05:55:51.374Z,14.75
2024-02-11T05:58:19.501Z,14.55
2024-02-11T06:00:48.820Z,13.92
2024-02-11T06:03:21.771Z,14.21
2024-02-11T06:05:50.591Z,15.48
2024-02-11T06:08:18.961Z,15.17
2024-02-11T06:10:48.111Z,13.41
2024-02-11T06:13:16.134Z,13.59
2024-02-11T06:15:44.710Z,12.99
2024-02-11T06:18:14.150Z,13.49
2024-02-11T06:20:42.324Z,13.10
2024-02-11T06:23:11.463Z,14.22
2024-02-11T06:25:39.509Z,13.90
2024-02-11T06:28:08.009Z,12.93
2024-02-11T06:30:38.342Z,12.72
2024-02-11T06:33:11.110Z,13.26
2024-02-11T06:35:41.402Z,13.12
2024-02-11T06:38:09.658Z,13.23
2024-02-11T06:40:37.765Z,13.81
2024-02-11T06:43:12.379Z,14.47
2024-02-11T06:45:46.888Z,13.80
2024-02-11T06:48:15.694Z,13.74
2024-02-11T06:50:45.129Z,14.50
2024-02-11T06:53:13.702Z,14.60
2024-02-11T06:55:42.165Z,15.21
2024-02-11T06:58:10.797Z,14.17
2024-02-11T07:00:39.097Z,14.23
2024-02-11T07:03:07.431Z,14.73
2024-02-11T07:05:35.836Z,14.53
2024-02-11T07:08:08.071Z,14.17
2024-02-11T07:10:37.201Z,14.43
2024-02-11T07:13:05.390Z,14.40
2024-02-11T07:15:34.813Z,13.95
2024-02-11T07:18:02.838Z,13.52
2024-02-11T07:20:31.055Z,14.33
2024-02-11T07:22:59.067Z,14.73
2024-02-11T07:25:28.918Z,14.52
2024-02-11T07:27:56.817Z,14.70
2024-02-11T07:30:25.004Z,14.58
2024-02-11T07:32:52.945Z,14.48
2024-02-11T07:35:24.357Z,15.02
2024-02-11T07:37:52.601Z,14.26
2024-02-11T07:40:20.540Z,14.13
2024-02-11T07:42:49.803Z,15.01
2024-02-11T07:45:18.123Z,14.94
2024-02-11T07:47:48.967Z,15.25
2024-02-11T07:50:18.003Z,15.20
2024-02-11T07:52:48.000Z,14.65
2024-02-11T07:55:16.675Z,15.17
2024-02-11T07:57:46.994Z,14.13
2024-02-11T08:00:19.064Z,15.11
2024-02-11T08:02:47.171Z,14.61
2024-02-11T08:05:15.248Z,14.99
2024-02-11T08:07:43.209Z,15.09
2024-02-11T08:10:12.439Z,14.95
2024-02-11T08:12:40.340Z,15.44
2024-02-11T08:15:13.673Z,14.70
2024-02-11T08:17:43.614Z,14.97
2024-02-11T08:20:13.421Z,14.65
2024-02-11T08:22:41.397Z,13.17
2024-02-11T08:25:11.998Z,14.43
2024-02-11T08:27:40.437Z,15.06
2024-02-11T08:30:10.668Z,13.73
2024-02-11T08:32:39.523Z,15.30
2024-02-11T08:35:10.417Z,15.38
2024-02-11T08:37:38.573Z,14.49
2024-02-11T08:40:08.665Z,14.70
2024-02-11T08:42:36.672Z,15.17
2024-02-11T08:45:04.978Z,15.03
2024-02-11T08:47:33.137Z,15.52
2024-02-11T08:50:01.216Z,16.14
2024-02-11T08:52:30.762Z,14.66
2024-02-11T08:54:58.630Z,14.89
2024-02-11T08:57:28.083Z,14.75
2024-02-11T08:59:56.276Z,15.35
2024-02-11T09:02:28.018Z,13.69
2024-02-11T09:04:58.288Z,14.82
2024-02-11T09:07:26.247Z,13.71
2024-02-11T09:09:55.507Z,13.87
2024-02-11T09:12:24.144Z,13.43
2024-02-11T09:14:52.078Z,14.47
2024-02-11T09:17:20.052Z,15.41
2024-02-11T09:19:48.265Z,15.80
2024-02-11T09:22:16.834Z,15.50
2024-02-11T09:24:44.810Z,15.39
2024-02-11T09:27:14.186Z,16.08
2024-02-11T09:29:42.190Z,16.07
2024-02-11T09:32:10.472Z,16.66
2024-02-11T09:34:38.666Z,15.75
2024-02-11T09:37:06.824Z,15.34
2024-02-11T09:39:34.824Z,15.31
2024-02-11T09:42:03.232Z,15.56
2024-02-11T09:44:36.569Z,15.66
2024-02-11T09:47:06.514Z,16.32
2024-02-11T09:49:38.030Z,16.81
2024-02-11T09:52:07.102Z,16.59
2024-02-11T09:54:36.727Z,16.98
2024-02-11T09:57:04.952Z,16.37
2024-02-11T09:59:34.976Z,16.73
2024-02-11T10:02:08.249Z,16.58
2024-02-11T10:04:40.992Z,16.71
2024-02-11T10:07:21.303Z,17.10
2024-02-11T10:09:49.851Z,16.93
2024-02-11T10:12:19.227Z,16.54
2024-02-11T10:14:59.525Z,16.70
2024-02-11T10:17:33.288Z,16.58
2024-02-11T10:20:01.544Z,16.91
2024-02-11T10:22:30.763Z,16.67
2024-02-11T10:24:58.986Z,17.00
2024-02-11T10:27:26.958Z,16.61
2024-02-11T10:29:54.930Z,16.58
2024-02-11T10:32:24.793Z,16.54
2024-02-11T10:34:53.018Z,16.76
2024-02-11T10:37:21.115Z,16.85
2024-02-11T10:39:49.088Z,16.67
2024-02-11T10:42:18.834Z,16.28
2024-02-11T10:44:50.400Z,17.03
2024-02-11T10:47:18.523Z,16.37
2024-02-11T10:49:47.927Z,16.83
2024-02-11T10:52:17.890Z,16.58
2024-02-11T10:54:49.292Z,16.15
2024-02-11T10:57:22.274Z,16.73
2024-02-11T10:59:54.963Z,16.69
2024-02-11T11:02:26.754Z,15.67
2024-02-11T11:04:58.737Z,16.45
2024-02-11T11:07:33.703Z,16.60
2024-02-11T11:10:03.272Z,16.76
2024-02-11T11:12:31.183Z,16.44
2024-02-11T11:14:59.960Z,16.94
2024-02-11T11:17:28.408Z,16.55
2024-02-11T11:20:00.616Z,16.93
2024-02-11T11:22:30.195Z,16.65
2024-02-11T11:24:59.205Z,16.63
2024-02-11T11:27:28.077Z,17.05
2024-02-11T11:29:56.084Z,16.83
2024-02-11T11:32:24.936Z,15.66
2024-02-11T11:34:53.301Z,16.52
2024-02-11T11:37:25.394Z,17.01
2024-02-11T11:39:55.889Z,17.10
2024-02-11T11:42:23.773Z,17.39
2024-02-11T11:44:51.655Z,17.28
2024-02-11T11:47:22.123Z,17.18
2024-02-11T11:49:52.288Z,17.16
2024-02-11T11:52:21.208Z,16.80
2024-02-11T11:54:50.462Z,16.48
2024-02-11T11:57:19.531Z,16.28
2024-02-11T11:59:57.332Z,16.72
2024-02-11T12:02:25.668Z,16.69
2024-02-11T12:04:54.322Z,17.02
2024-02-11T12:07:22.827Z,16.90
2024-02-11T12:09:53.912Z,16.74
2024-02-11T12:12:22.281Z,17.38
2024-02-11T12:14:49.966Z,16.99
2024-02-11T12:17:18.309Z,17.10
2024-02-11T12:19:49.458Z,17.15
2024-02-11T12:22:17.772Z,17.05
2024-02-11T12:24:45.833Z,16.49
2024-02-11T12:27:19.256Z,17.23
2024-02-11T12:29:55.348Z,16.71
2024-02-11T12:32:25.759Z,16.87
2024-02-11T12:34:57.613Z,16.14
2024-02-11T12:37:29.702Z,16.21
2024-02-11T12:39:58.675Z,16.71
2024-02-11T12:42:28.331Z,16.85
2024-02-11T12:44:56.672Z,17.17
2024-02-11T12:47:25.774Z,16.49
2024-02-11T12:49:54.303Z,16.86
2024-02-11T12:52:22.471Z,16.58
2024-02-11T12:54:50.397Z,16.04
2024-02-11T12:57:18.454Z,16.70
2024-02-11T12:59:48.080Z,16.26
2024-02-11T13:02:17.438Z,16.31
2024-02-11T13:04:45.553Z,17.07
2024-02-11T13:07:13.528Z,16.64
2024-02-11T13:09:41.506Z,16.46
2024-02-11T13:12:09.453Z,16.45
2024-02-11T13:14:37.530Z,16.36
2024-02-11T13:17:08.115Z,16.69
2024-02-11T13:19:36.172Z,16.31
2024-02-11T13:22:05.139Z,16.31
2024-02-11T13:24:33.081Z,16.75
2024-02-11T13:27:00.989Z,16.76
2024-02-11T13:29:29.071Z,15.70
2024-02-11T13:31:57.238Z,16.21
2024-02-11T13:34:26.676Z,16.59
2024-02-11T13:36:54.676Z,16.52
2024-02-11T13:39:23.337Z,16.18
2024-02-11T13:41:51.440Z,16.17
2024-02-11T13:44:19.392Z,16.23
2024-02-11T13:46:47.410Z,16.25
2024-02-11T13:49:15.424Z,16.35
2024-02-11T13:51:45.047Z,16.24
2024-02-11T13:54:13.486Z,16.43
2024-02-11T13:56:41.391Z,16.17
2024-02-11T13:59:09.535Z,16.27
2024-02-11T14:01:37.741Z,16.26
2024-02-11T14:04:06.091Z,16.10
2024-02-11T14:06:34.389Z,16.38
2024-02-11T14:09:03.793Z,16.60
2024-02-11T14:11:31.739Z,16.58
2024-02-11T14:13:59.687Z,16.57
2024-02-11T14:16:27.626Z,16.48
2024-02-11T14:18:55.682Z,16.23
2024-02-11T14:21:24.656Z,16.72
2024-02-11T14:23:52.701Z,16.37
2024-02-11T14:26:22.122Z,16.27
2024-02-11T14:28:50.946Z,16.51
2024-02-11T14:31:19.227Z,16.75
2024-02-11T14:33:47.352Z,16.25
2024-02-11T14:36:15.545Z,16.31
2024-02-11T14:38:45.281Z,16.56
2024-02-11T14:43:04.724Z,16.25
2024-02-11T14:45:32.719Z,16.31
2024-02-11T14:48:01.586Z,16.47
2024-02-11T14:50:30.019Z,16.37
2024-02-11T14:52:59.673Z,16.65
2024-02-11T14:55:27.764Z,16.56
2024-02-11T14:57:55.903Z,16.10
2024-02-11T15:00:27.493Z,16.71
2024-02-11T15:02:55.518Z,16.17
2024-02-11T15:05:23.522Z,16.25
2024-02-11T15:07:51.563Z,16.48
2024-02-11T15:10:19.594Z,16.31
2024-02-11T15:12:47.773Z,16.16
2024-02-11T15:15:16.874Z,16.28
2024-02-11T15:17:46.216Z,15.82
2024-02-11T15:20:14.444Z,16.20
2024-02-11T15:22:45.195Z,16.11
2024-02-11T15:25:14.583Z,16.05
2024-02-11T15:27:42.533Z,16.17
2024-02-11T15:30:15.329Z,16.40
2024-02-11T15:32:43.568Z,16.12
2024-02-11T15:35:13.272Z,16.23
2024-02-11T15:37:41.201Z,16.69
2024-02-11T15:40:11.106Z,16.60
2024-02-11T15:42:39.031Z,16.14
2024-02-11T15:45:07.790Z,16.32
2024-02-11T15:47:37.250Z,16.15
2024-02-11T15:50:06.105Z,16.21
2024-02-11T15:52:35.493Z,16.42
2024-02-11T15:55:03.633Z,16.61
2024-02-11T15:57:31.526Z,16.25
2024-02-11T15:59:59.548Z,16.31
2024-02-11T16:02:29.008Z,16.46
2024-02-11T16:04:57.069Z,16.81
2024-02-11T16:07:25.266Z,16.34
2024-02-11T16:09:54.890Z,16.59
2024-02-11T16:12:22.786Z,16.17
2024-02-11T16:14:50.931Z,16.96
2024-02-11T16:17:18.840Z,16.88
2024-02-11T16:19:47.963Z,16.02
2024-02-11T16:22:15.898Z,16.58
2024-02-11T16:24:43.826Z,16.79
2024-02-11T16:27:14.657Z,16.65
2024-02-11T16:29:42.562Z,16.37
2024-02-11T16:32:10.753Z,16.45
2024-02-11T16:34:38.781Z,16.46
2024-02-11T16:37:06.727Z,16.25
2024-02-11T16:39:34.666Z,16.66
2024-02-11T16:42:02.579Z,16.85
2024-02-11T16:44:31.900Z,16.66
2024-02-11T16:46:59.870Z,16.31
2024-02-11T16:49:28.215Z,16.17
2024-02-11T16:51:57.237Z,16.31
2024-02-11T16:54:25.146Z,16.35
2024-02-11T16:56:52.362Z,15.74
2024-02-11T16:59:20.328Z,16.45
2024-02-11T17:01:49.734Z,16.81
2024-02-11T17:04:17.655Z,16.47
2024-02-11T17:06:45.573Z,15.87
2024-02-11T17:09:15.465Z,16.55
2024-02-11T17:11:47.544Z,16.73
2024-02-11T17:14:15.919Z,16.44
2024-02-11T17:16:44.551Z,16.81
2024-02-11T17:19:15.738Z,16.81
2024-02-11T17:21:43.868Z,16.61
2024-02-11T17:24:11.903Z,16.48
2024-02-11T17:26:40.124Z,16.81
2024-02-11T17:29:09.518Z,16.64
2024-02-11T17:31:41.868Z,16.90
2024-02-11T17:34:14.295Z,17.26
2024-02-11T17:36:44.750Z,17.15
2024-02-11T17:39:14.884Z,16.69
2024-02-11T17:41:42.989Z,16.87
2024-02-11T17:44:11.109Z,16.59
2024-02-11T17:46:40.250Z,16.14
2024-02-11T17:49:09.932Z,16.57
2024-02-11T17:51:39.551Z,16.95
2024-02-11T17:54:11.572Z,16.59
2024-02-11T17:56:42.124Z,16.64
2024-02-11T17:59:10.859Z,16.73
2024-02-11T18:01:40.017Z,16.74
2024-02-11T18:04:08.681Z,16.90
2024-02-11T18:06:39.056Z,17.07
2024-02-11T18:09:12.001Z,16.90
2024-02-11T18:11:40.860Z,16.70
2024-02-11T18:14:11.137Z,16.96
2024-02-11T18:16:39.725Z,16.73
2024-02-11T18:19:08.143Z,17.12
2024-02-11T18:21:37.494Z,17.35
2024-02-11T18:24:06.243Z,17.12
2024-02-11T18:26:35.559Z,17.45
2024-02-11T18:29:04.116Z,17.33
2024-02-11T18:31:32.779Z,17.18
2024-02-11T18:34:01.588Z,17.17
2024-02-11T18:36:29.797Z,17.09
2024-02-11T18:38:57.684Z,17.04
2024-02-11T18:41:25.587Z,16.75
2024-02-11T18:43:54.873Z,17.07
2024-02-11T18:46:22.784Z,17.13
2024-02-11T18:48:52.761Z,17.19
2024-02-11T18:51:20.982Z,16.73
2024-02-11T18:53:48.874Z,16.80
2024-02-11T18:56:16.868Z,17.01
2024-02-11T18:58:45.567Z,17.16
2024-02-11T19:01:15.061Z,16.94
2024-02-11T19:03:43.026Z,16.62
2024-02-11T19:06:11.133Z,17.27
2024-02-11T19:08:41.106Z,17.14
2024-02-11T19:11:10.778Z,17.07
2024-02-11T19:13:38.718Z,16.94
2024-02-11T19:16:07.873Z,16.99
2024-02-11T19:18:37.736Z,17.05
2024-02-11T19:21:06.607Z,16.96
2024-02-11T19:23:34.565Z,17.27
2024-02-11T19:26:02.568Z,17.39
2024-02-11T19:28:30.609Z,16.76
2024-02-11T19:30:59.252Z,17.01
2024-02-11T19:33:27.295Z,17.31
2024-02-11T19:35:57.578Z,16.61
2024-02-11T19:38:26.192Z,16.82
2024-02-11T19:40:54.721Z,17.26
2024-02-11T19:43:23.058Z,17.31
2024-02-11T19:45:51.403Z,17.68
2024-02-11T19:48:19.648Z,17.65
2024-02-11T19:50:47.657Z,17.64
2024-02-11T19:53:30.894Z,17.72
2024-02-11T19:56:04.209Z,18.21
2024-02-11T19:58:33.645Z,18.10
2024-02-11T20:01:05.134Z,17.48
2024-02-11T20:03:35.924Z,17.72
2024-02-11T20:06:04.085Z,17.94
2024-02-11T20:08:33.558Z,17.87
2024-02-11T20:11:01.652Z,17.79
2024-02-11T20:13:29.574Z,18.08
2024-02-11T20:15:57.664Z,17.68
2024-02-11T20:18:25.735Z,18.33
2024-02-11T20:20:56.395Z,18.17
2024-02-11T20:23:24.385Z,18.00
2024-02-11T20:25:55.426Z,18.36
2024-02-11T20:28:25.077Z,18.40
2024-02-11T20:30:54.176Z,18.12
2024-02-11T20:33:22.626Z,18.69
2024-02-11T20:35:50.557Z,19.33
2024-02-11T20:38:19.006Z,20.12
2024-02-11T20:40:47.496Z,17.60
2024-02-11T20:43:16.943Z,17.40
2024-02-11T20:45:45.733Z,15.96
2024-02-11T20:48:14.719Z,-144.96
2024-02-11T20:50:42.705Z,-144.96
2024-02-11T20:53:10.752Z,-144.96
2024-02-11T20:55:38.850Z,-144.96
2024-02-11T20:58:06.896Z,-144.96
2024-02-11T23:20:22.064Z,-144.96
2024-02-11T23:22:51.596Z,-144.96
2024-02-11T23:25:20.755Z,-144.96
2024-02-11T23:27:50.380Z,-144.96
2024-02-11T23:30:18.533Z,-144.96
2024-02-11T23:32:48.777Z,-144.96
2024-02-11T23:35:17.220Z,-144.96
2024-02-11T23:37:46.227Z,-144.96
2024-02-11T23:42:42.403Z,-144.96
2024-02-11T23:45:11.433Z,-144.96
2024-02-11T23:47:39.594Z,-144.96
2024-02-11T23:50:10.561Z,-144.96
2024-02-11T23:52:38.559Z,-144.96
2024-02-11T23:55:08.682Z,-144.96
2024-02-11T23:57:41.881Z,-144.96
